Terminal Aerodrome Forecast
Issued by NWS

Current Version | Previous Version | Text Only | Print | Product List | Glossary On
Versions: 1 2 3 4 5 6 7 8 9 10 11 12 13 14 15 16 17 18
000
FTUS45 KABQ 012339
TAFTCC
TAF
KTCC 012339Z 0200/0224 20011KT P6SM VCSH SCT060 BKN100
      TEMPO 0200/0202 VRB20G30KT 6SM -TSRA BKN060CB
     FM020200 20009KT P6SM VCSH SCT060 BKN100
     FM020700 23010KT P6SM BKN100=

USA.gov is the U.S. government's official web portal to all federal, state and local government web resources and services.